sensor_id;sensor_type;location;lat;lon;timestamp;P1;durP1;ratioP1;P2;durP2;ratioP2
52106;SDS011;38105;52.968;5.974;2022-07-23T00:00:46;5.32;;;3.47;;
52106;SDS011;38105;52.968;5.974;2022-07-23T00:03:12;4.68;;;3.25;;
52106;SDS011;38105;52.968;5.974;2022-07-23T00:05:38;3.92;;;3.53;;
52106;SDS011;38105;52.968;5.974;2022-07-23T00:08:04;6.75;;;3.80;;
52106;SDS011;38105;52.968;5.974;2022-07-23T00:10:31;4.20;;;3.58;;
52106;SDS011;38105;52.968;5.974;2022-07-23T00:12:57;4.07;;;3.15;;
52106;SDS011;38105;52.968;5.974;2022-07-23T00:15:23;5.43;;;3.78;;
52106;SDS011;38105;52.968;5.974;2022-07-23T00:17:48;4.90;;;3.13;;
52106;SDS011;38105;52.968;5.974;2022-07-23T00:20:14;5.97;;;3.75;;
52106;SDS011;38105;52.968;5.974;2022-07-23T00:22:49;3.70;;;2.78;;
52106;SDS011;38105;52.968;5.974;2022-07-23T00:25:16;3.88;;;2.85;;
52106;SDS011;38105;52.968;5.974;2022-07-23T00:27:43;5.32;;;2.97;;
52106;SDS011;38105;52.968;5.974;2022-07-23T00:30:09;4.50;;;3.20;;
52106;SDS011;38105;52.968;5.974;2022-07-23T00:32:45;5.47;;;3.40;;
52106;SDS011;38105;52.968;5.974;2022-07-23T00:35:11;4.28;;;3.47;;
52106;SDS011;38105;52.968;5.974;2022-07-23T00:37:37;4.15;;;3.20;;
52106;SDS011;38105;52.968;5.974;2022-07-23T00:40:02;5.95;;;3.03;;
52106;SDS011;38105;52.968;5.974;2022-07-23T00:42:28;4.97;;;3.00;;
52106;SDS011;38105;52.968;5.974;2022-07-23T00:44:56;2.85;;;2.40;;
52106;SDS011;38105;52.968;5.974;2022-07-23T00:47:22;1.70;;;1.60;;
52106;SDS011;38105;52.968;5.974;2022-07-23T00:49:47;2.20;;;1.33;;
52106;SDS011;38105;52.968;5.974;2022-07-23T00:52:13;3.55;;;1.92;;
52106;SDS011;38105;52.968;5.974;2022-07-23T00:54:39;3.17;;;2.60;;
52106;SDS011;38105;52.968;5.974;2022-07-23T00:57:04;3.03;;;2.20;;
52106;SDS011;38105;52.968;5.974;2022-07-23T00:59:30;3.08;;;2.40;;
52106;SDS011;38105;52.968;5.974;2022-07-23T01:01:56;3.85;;;2.15;;
52106;SDS011;38105;52.968;5.974;2022-07-23T01:04:22;3.75;;;2.30;;
52106;SDS011;38105;52.968;5.974;2022-07-23T01:06:47;3.58;;;1.92;;
52106;SDS011;38105;52.968;5.974;2022-07-23T01:09:13;1.70;;;1.60;;
52106;SDS011;38105;52.968;5.974;2022-07-23T01:11:39;3.10;;;1.50;;
52106;SDS011;38105;52.968;5.974;2022-07-23T01:14:13;2.50;;;1.90;;
52106;SDS011;38105;52.968;5.974;2022-07-23T01:16:44;4.75;;;2.30;;
52106;SDS011;38105;52.968;5.974;2022-07-23T01:19:12;4.22;;;2.28;;
52106;SDS011;38105;52.968;5.974;2022-07-23T01:21:39;2.85;;;2.20;;
52106;SDS011;38105;52.968;5.974;2022-07-23T01:24:09;2.90;;;2.15;;
52106;SDS011;38105;52.968;5.974;2022-07-23T01:26:36;2.92;;;2.28;;
52106;SDS011;38105;52.968;5.974;2022-07-23T01:29:03;3.45;;;2.10;;
52106;SDS011;38105;52.968;5.974;2022-07-23T01:31:29;7.18;;;2.15;;
52106;SDS011;38105;52.968;5.974;2022-07-23T01:33:54;3.95;;;2.55;;
52106;SDS011;38105;52.968;5.974;2022-07-23T01:36:20;4.88;;;2.85;;
52106;SDS011;38105;52.968;5.974;2022-07-23T01:38:46;2.35;;;2.15;;
52106;SDS011;38105;52.968;5.974;2022-07-23T01:41:12;7.18;;;2.47;;
52106;SDS011;38105;52.968;5.974;2022-07-23T01:43:37;3.03;;;2.28;;
52106;SDS011;38105;52.968;5.974;2022-07-23T01:46:03;3.47;;;1.98;;
52106;SDS011;38105;52.968;5.974;2022-07-23T01:48:29;1.98;;;1.80;;
52106;SDS011;38105;52.968;5.974;2022-07-23T01:50:54;5.45;;;2.00;;
52106;SDS011;38105;52.968;5.974;2022-07-23T01:53:20;5.10;;;1.83;;
52106;SDS011;38105;52.968;5.974;2022-07-23T01:55:46;2.50;;;1.73;;
52106;SDS011;38105;52.968;5.974;2022-07-23T01:58:11;3.78;;;1.70;;
52106;SDS011;38105;52.968;5.974;2022-07-23T02:00:37;2.42;;;1.85;;
52106;SDS011;38105;52.968;5.974;2022-07-23T02:03:03;3.40;;;1.77;;
52106;SDS011;38105;52.968;5.974;2022-07-23T02:05:28;1.38;;;1.25;;
52106;SDS011;38105;52.968;5.974;2022-07-23T02:07:55;2.05;;;1.25;;
52106;SDS011;38105;52.968;5.974;2022-07-23T02:10:22;4.32;;;0.93;;
52106;SDS011;38105;52.968;5.974;2022-07-23T02:12:47;3.92;;;1.30;;
52106;SDS011;38105;52.968;5.974;2022-07-23T02:15:13;4.20;;;1.30;;
52106;SDS011;38105;52.968;5.974;2022-07-23T02:17:38;4.55;;;1.55;;
52106;SDS011;38105;52.968;5.974;2022-07-23T02:20:05;1.63;;;1.45;;
52106;SDS011;38105;52.968;5.974;2022-07-23T02:22:32;4.55;;;1.90;;
52106;SDS011;38105;52.968;5.974;2022-07-23T02:24:59;3.47;;;1.80;;
52106;SDS011;38105;52.968;5.974;2022-07-23T02:27:24;5.35;;;1.90;;
52106;SDS011;38105;52.968;5.974;2022-07-23T02:29:50;2.97;;;2.30;;
52106;SDS011;38105;52.968;5.974;2022-07-23T02:32:16;4.80;;;2.70;;
52106;SDS011;38105;52.968;5.974;2022-07-23T02:34:41;5.93;;;2.88;;
52106;SDS011;38105;52.968;5.974;2022-07-23T02:37:07;2.58;;;2.20;;
52106;SDS011;38105;52.968;5.974;2022-07-23T02:39:34;2.85;;;2.20;;
52106;SDS011;38105;52.968;5.974;2022-07-23T02:42:01;3.92;;;2.20;;
52106;SDS011;38105;52.968;5.974;2022-07-23T02:44:26;3.92;;;1.80;;
52106;SDS011;38105;52.968;5.974;2022-07-23T02:46:52;2.75;;;2.28;;
52106;SDS011;38105;52.968;5.974;2022-07-23T02:49:18;3.20;;;2.00;;
52106;SDS011;38105;52.968;5.974;2022-07-23T02:51:43;6.43;;;2.40;;
52106;SDS011;38105;52.968;5.974;2022-07-23T02:54:09;3.92;;;3.28;;
52106;SDS011;38105;52.968;5.974;2022-07-23T02:56:34;3.55;;;1.70;;
52106;SDS011;38105;52.968;5.974;2022-07-23T02:59:00;4.88;;;2.20;;
52106;SDS011;38105;52.968;5.974;2022-07-23T03:01:26;4.18;;;2.20;;
52106;SDS011;38105;52.968;5.974;2022-07-23T03:03:51;5.40;;;2.47;;
52106;SDS011;38105;52.968;5.974;2022-07-23T03:06:17;3.58;;;2.20;;
52106;SDS011;38105;52.968;5.974;2022-07-23T03:08:42;2.50;;;2.25;;
52106;SDS011;38105;52.968;5.974;2022-07-23T03:11:08;2.50;;;1.92;;
52106;SDS011;38105;52.968;5.974;2022-07-23T03:13:39;3.80;;;2.08;;
52106;SDS011;38105;52.968;5.974;2022-07-23T03:16:06;3.33;;;1.88;;
52106;SDS011;38105;52.968;5.974;2022-07-23T03:18:32;2.55;;;1.75;;
52106;SDS011;38105;52.968;5.974;2022-07-23T03:20:58;3.25;;;1.58;;
52106;SDS011;38105;52.968;5.974;2022-07-23T03:23:25;3.58;;;1.90;;
52106;SDS011;38105;52.968;5.974;2022-07-23T03:25:51;3.72;;;1.60;;
52106;SDS011;38105;52.968;5.974;2022-07-23T03:28:17;4.40;;;1.42;;
52106;SDS011;38105;52.968;5.974;2022-07-23T03:30:44;2.80;;;1.70;;
52106;SDS011;38105;52.968;5.974;2022-07-23T03:33:15;3.28;;;2.25;;
52106;SDS011;38105;52.968;5.974;2022-07-23T03:35:44;2.00;;;1.48;;
52106;SDS011;38105;52.968;5.974;2022-07-23T03:38:11;2.50;;;1.60;;
52106;SDS011;38105;52.968;5.974;2022-07-23T03:40:37;2.75;;;1.27;;
52106;SDS011;38105;52.968;5.974;2022-07-23T03:43:03;0.82;;;0.82;;
52106;SDS011;38105;52.968;5.974;2022-07-23T03:45:29;2.40;;;1.33;;
52106;SDS011;38105;52.968;5.974;2022-07-23T03:47:54;3.50;;;1.33;;
52106;SDS011;38105;52.968;5.974;2022-07-23T03:50:21;2.28;;;1.40;;
52106;SDS011;38105;52.968;5.974;2022-07-23T03:52:47;6.00;;;1.30;;
52106;SDS011;38105;52.968;5.974;2022-07-23T03:55:13;2.72;;;1.88;;
52106;SDS011;38105;52.968;5.974;2022-07-23T03:57:39;3.55;;;2.42;;
52106;SDS011;38105;52.968;5.974;2022-07-23T04:00:05;2.67;;;1.88;;
52106;SDS011;38105;52.968;5.974;2022-07-23T04:02:34;4.63;;;1.85;;
52106;SDS011;38105;52.968;5.974;2022-07-23T04:05:00;6.60;;;2.42;;
52106;SDS011;38105;52.968;5.974;2022-07-23T04:07:26;3.38;;;2.50;;
52106;SDS011;38105;52.968;5.974;2022-07-23T04:09:52;2.88;;;2.58;;
52106;SDS011;38105;52.968;5.974;2022-07-23T04:12:17;4.50;;;2.47;;
52106;SDS011;38105;52.968;5.974;2022-07-23T04:14:44;3.00;;;2.70;;
52106;SDS011;38105;52.968;5.974;2022-07-23T04:17:10;4.22;;;3.20;;
52106;SDS011;38105;52.968;5.974;2022-07-23T04:19:36;7.82;;;3.08;;
52106;SDS011;38105;52.968;5.974;2022-07-23T04:22:05;4.40;;;3.35;;
52106;SDS011;38105;52.968;5.974;2022-07-23T04:24:32;6.25;;;3.53;;
52106;SDS011;38105;52.968;5.974;2022-07-23T04:26:57;5.00;;;3.70;;
52106;SDS011;38105;52.968;5.974;2022-07-23T04:29:23;4.40;;;3.70;;
52106;SDS011;38105;52.968;5.974;2022-07-23T04:31:49;4.68;;;4.00;;
52106;SDS011;38105;52.968;5.974;2022-07-23T04:34:15;5.22;;;4.10;;
52106;SDS011;38105;52.968;5.974;2022-07-23T04:36:40;5.93;;;4.43;;
52106;SDS011;38105;52.968;5.974;2022-07-23T04:39:06;4.18;;;3.50;;
52106;SDS011;38105;52.968;5.974;2022-07-23T04:41:32;9.00;;;4.18;;
52106;SDS011;38105;52.968;5.974;2022-07-23T04:43:59;5.65;;;3.80;;
52106;SDS011;38105;52.968;5.974;2022-07-23T04:46:25;5.85;;;4.13;;
52106;SDS011;38105;52.968;5.974;2022-07-23T04:48:50;6.40;;;3.97;;
52106;SDS011;38105;52.968;5.974;2022-07-23T04:51:16;7.65;;;3.97;;
52106;SDS011;38105;52.968;5.974;2022-07-23T04:53:42;6.20;;;4.03;;
52106;SDS011;38105;52.968;5.974;2022-07-23T04:56:07;6.80;;;3.80;;
52106;SDS011;38105;52.968;5.974;2022-07-23T04:58:33;5.63;;;3.60;;
52106;SDS011;38105;52.968;5.974;2022-07-23T05:00:59;4.72;;;3.42;;
52106;SDS011;38105;52.968;5.974;2022-07-23T05:03:24;5.38;;;3.47;;
52106;SDS011;38105;52.968;5.974;2022-07-23T05:05:50;4.38;;;3.03;;
52106;SDS011;38105;52.968;5.974;2022-07-23T05:08:16;4.05;;;3.22;;
52106;SDS011;38105;52.968;5.974;2022-07-23T05:10:42;6.97;;;3.35;;
52106;SDS011;38105;52.968;5.974;2022-07-23T05:13:08;5.35;;;3.33;;
52106;SDS011;38105;52.968;5.974;2022-07-23T05:15:33;4.90;;;3.13;;
52106;SDS011;38105;52.968;5.974;2022-07-23T05:17:59;4.78;;;2.75;;
52106;SDS011;38105;52.968;5.974;2022-07-23T05:20:25;4.63;;;3.05;;
52106;SDS011;38105;52.968;5.974;2022-07-23T05:22:51;4.25;;;2.60;;
52106;SDS011;38105;52.968;5.974;2022-07-23T05:25:16;6.20;;;2.58;;
52106;SDS011;38105;52.968;5.974;2022-07-23T05:27:42;6.22;;;2.80;;
52106;SDS011;38105;52.968;5.974;2022-07-23T05:30:08;5.88;;;2.28;;
52106;SDS011;38105;52.968;5.974;2022-07-23T05:32:34;4.03;;;2.33;;
52106;SDS011;38105;52.968;5.974;2022-07-23T05:35:01;5.65;;;2.40;;
52106;SDS011;38105;52.968;5.974;2022-07-23T05:37:28;3.72;;;2.30;;
52106;SDS011;38105;52.968;5.974;2022-07-23T05:39:53;4.68;;;2.53;;
52106;SDS011;38105;52.968;5.974;2022-07-23T05:42:19;3.05;;;1.92;;
52106;SDS011;38105;52.968;5.974;2022-07-23T05:44:45;4.70;;;1.90;;
52106;SDS011;38105;52.968;5.974;2022-07-23T05:47:10;4.25;;;2.00;;
52106;SDS011;38105;52.968;5.974;2022-07-23T05:49:37;4.07;;;1.63;;
52106;SDS011;38105;52.968;5.974;2022-07-23T05:52:04;5.25;;;1.83;;
52106;SDS011;38105;52.968;5.974;2022-07-23T05:54:30;3.97;;;1.45;;
52106;SDS011;38105;52.968;5.974;2022-07-23T05:56:58;5.35;;;1.60;;
52106;SDS011;38105;52.968;5.974;2022-07-23T05:59:24;3.25;;;1.38;;
52106;SDS011;38105;52.968;5.974;2022-07-23T06:01:49;4.15;;;1.60;;
52106;SDS011;38105;52.968;5.974;2022-07-23T06:04:15;3.60;;;1.75;;
52106;SDS011;38105;52.968;5.974;2022-07-23T06:06:40;3.30;;;1.20;;
52106;SDS011;38105;52.968;5.974;2022-07-23T06:09:06;1.83;;;0.80;;
52106;SDS011;38105;52.968;5.974;2022-07-23T06:11:32;2.40;;;0.70;;
52106;SDS011;38105;52.968;5.974;2022-07-23T06:13:58;2.63;;;0.57;;
52106;SDS011;38105;52.968;5.974;2022-07-23T06:16:23;2.60;;;0.60;;
52106;SDS011;38105;52.968;5.974;2022-07-23T06:18:49;2.45;;;0.43;;
52106;SDS011;38105;52.968;5.974;2022-07-23T06:21:15;3.17;;;0.60;;
52106;SDS011;38105;52.968;5.974;2022-07-23T06:23:40;3.00;;;0.50;;
52106;SDS011;38105;52.968;5.974;2022-07-23T06:26:06;2.25;;;0.50;;
52106;SDS011;38105;52.968;5.974;2022-07-23T06:28:32;1.92;;;0.40;;
52106;SDS011;38105;52.968;5.974;2022-07-23T06:30:57;1.30;;;0.43;;
52106;SDS011;38105;52.968;5.974;2022-07-23T06:33:23;3.35;;;0.60;;
52106;SDS011;38105;52.968;5.974;2022-07-23T06:35:49;4.85;;;0.40;;
52106;SDS011;38105;52.968;5.974;2022-07-23T06:38:14;1.95;;;0.40;;
52106;SDS011;38105;52.968;5.974;2022-07-23T06:40:40;3.60;;;0.40;;
52106;SDS011;38105;52.968;5.974;2022-07-23T06:43:05;3.13;;;0.50;;
52106;SDS011;38105;52.968;5.974;2022-07-23T06:45:31;1.45;;;0.30;;
52106;SDS011;38105;52.968;5.974;2022-07-23T06:47:56;1.50;;;0.20;;
52106;SDS011;38105;52.968;5.974;2022-07-23T06:50:22;1.65;;;0.20;;
52106;SDS011;38105;52.968;5.974;2022-07-23T06:52:48;3.58;;;0.30;;
52106;SDS011;38105;52.968;5.974;2022-07-23T06:55:14;0.93;;;0.25;;
52106;SDS011;38105;52.968;5.974;2022-07-23T06:57:39;2.50;;;0.20;;
52106;SDS011;38105;52.968;5.974;2022-07-23T07:00:05;1.75;;;0.20;;
52106;SDS011;38105;52.968;5.974;2022-07-23T07:02:32;0.95;;;0.30;;
52106;SDS011;38105;52.968;5.974;2022-07-23T07:04:57;2.38;;;0.30;;
52106;SDS011;38105;52.968;5.974;2022-07-23T07:07:23;1.35;;;0.20;;
52106;SDS011;38105;52.968;5.974;2022-07-23T07:09:49;2.55;;;0.30;;
52106;SDS011;38105;52.968;5.974;2022-07-23T07:12:14;1.50;;;0.20;;
52106;SDS011;38105;52.968;5.974;2022-07-23T07:14:40;3.40;;;0.25;;
52106;SDS011;38105;52.968;5.974;2022-07-23T07:17:06;1.42;;;0.28;;
52106;SDS011;38105;52.968;5.974;2022-07-23T07:19:31;1.60;;;0.30;;
52106;SDS011;38105;52.968;5.974;2022-07-23T07:21:57;0.60;;;0.20;;
52106;SDS011;38105;52.968;5.974;2022-07-23T07:24:23;2.97;;;0.52;;
52106;SDS011;38105;52.968;5.974;2022-07-23T07:26:48;0.70;;;0.13;;
52106;SDS011;38105;52.968;5.974;2022-07-23T07:29:14;1.10;;;0.20;;
52106;SDS011;38105;52.968;5.974;2022-07-23T07:31:39;1.02;;;0.20;;
52106;SDS011;38105;52.968;5.974;2022-07-23T07:34:05;1.17;;;0.20;;
52106;SDS011;38105;52.968;5.974;2022-07-23T07:36:31;1.85;;;0.17;;
52106;SDS011;38105;52.968;5.974;2022-07-23T07:38:57;0.90;;;0.28;;
52106;SDS011;38105;52.968;5.974;2022-07-23T07:41:23;2.25;;;0.25;;
52106;SDS011;38105;52.968;5.974;2022-07-23T07:43:51;0.70;;;0.15;;
52106;SDS011;38105;52.968;5.974;2022-07-23T07:46:17;1.48;;;0.28;;
52106;SDS011;38105;52.968;5.974;2022-07-23T07:48:43;2.42;;;0.20;;
52106;SDS011;38105;52.968;5.974;2022-07-23T07:51:08;0.57;;;0.10;;
52106;SDS011;38105;52.968;5.974;2022-07-23T07:53:34;0.43;;;0.20;;
52106;SDS011;38105;52.968;5.974;2022-07-23T07:56:00;1.42;;;0.20;;
52106;SDS011;38105;52.968;5.974;2022-07-23T07:58:25;2.95;;;0.30;;
52106;SDS011;38105;52.968;5.974;2022-07-23T08:00:51;0.75;;;0.10;;
52106;SDS011;38105;52.968;5.974;2022-07-23T08:03:17;1.15;;;0.20;;
52106;SDS011;38105;52.968;5.974;2022-07-23T08:05:42;1.33;;;0.20;;
52106;SDS011;38105;52.968;5.974;2022-07-23T08:08:08;1.38;;;0.30;;
52106;SDS011;38105;52.968;5.974;2022-07-23T08:10:39;2.67;;;0.20;;
52106;SDS011;38105;52.968;5.974;2022-07-23T08:13:05;1.70;;;0.32;;
52106;SDS011;38105;52.968;5.974;2022-07-23T08:15:31;0.90;;;0.13;;
52106;SDS011;38105;52.968;5.974;2022-07-23T08:17:57;1.92;;;0.20;;
52106;SDS011;38105;52.968;5.974;2022-07-23T08:20:23;2.13;;;0.20;;
52106;SDS011;38105;52.968;5.974;2022-07-23T08:22:53;1.50;;;0.20;;
52106;SDS011;38105;52.968;5.974;2022-07-23T08:25:23;1.20;;;0.20;;
52106;SDS011;38105;52.968;5.974;2022-07-23T08:27:53;0.80;;;0.20;;
52106;SDS011;38105;52.968;5.974;2022-07-23T08:30:19;1.83;;;0.20;;
52106;SDS011;38105;52.968;5.974;2022-07-23T08:32:52;1.08;;;0.20;;
52106;SDS011;38105;52.968;5.974;2022-07-23T08:35:27;1.85;;;0.20;;
52106;SDS011;38105;52.968;5.974;2022-07-23T08:37:53;1.13;;;0.40;;
52106;SDS011;38105;52.968;5.974;2022-07-23T08:40:18;0.52;;;0.13;;
52106;SDS011;38105;52.968;5.974;2022-07-23T08:42:46;0.77;;;0.20;;
52106;SDS011;38105;52.968;5.974;2022-07-23T08:45:13;1.05;;;0.35;;
52106;SDS011;38105;52.968;5.974;2022-07-23T08:47:41;0.75;;;0.28;;
52106;SDS011;38105;52.968;5.974;2022-07-23T08:50:09;1.42;;;0.20;;
52106;SDS011;38105;52.968;5.974;2022-07-23T08:52:35;2.42;;;0.30;;
52106;SDS011;38105;52.968;5.974;2022-07-23T08:55:02;1.27;;;0.30;;
52106;SDS011;38105;52.968;5.974;2022-07-23T08:57:28;2.53;;;0.32;;
52106;SDS011;38105;52.968;5.974;2022-07-23T08:59:54;1.63;;;0.20;;
52106;SDS011;38105;52.968;5.974;2022-07-23T09:02:21;0.95;;;0.22;;
52106;SDS011;38105;52.968;5.974;2022-07-23T09:04:46;0.75;;;0.13;;
52106;SDS011;38105;52.968;5.974;2022-07-23T09:07:12;2.13;;;0.40;;
52106;SDS011;38105;52.968;5.974;2022-07-23T09:09:38;1.63;;;0.38;;
52106;SDS011;38105;52.968;5.974;2022-07-23T09:14:36;1.40;;;0.20;;
52106;SDS011;38105;52.968;5.974;2022-07-23T09:17:10;2.17;;;0.30;;
52106;SDS011;38105;52.968;5.974;2022-07-23T09:19:41;1.65;;;0.20;;
52106;SDS011;38105;52.968;5.974;2022-07-23T09:22:23;3.33;;;0.50;;
52106;SDS011;38105;52.968;5.974;2022-07-23T09:30:17;1.60;;;0.45;;
52106;SDS011;38105;52.968;5.974;2022-07-23T09:32:43;1.85;;;0.30;;
52106;SDS011;38105;52.968;5.974;2022-07-23T09:35:08;2.72;;;0.30;;
52106;SDS011;38105;52.968;5.974;2022-07-23T09:37:34;3.53;;;0.40;;
52106;SDS011;38105;52.968;5.974;2022-07-23T09:40:06;1.63;;;0.25;;
52106;SDS011;38105;52.968;5.974;2022-07-23T09:42:34;1.15;;;0.20;;
52106;SDS011;38105;52.968;5.974;2022-07-23T09:45:00;3.05;;;0.50;;
52106;SDS011;38105;52.968;5.974;2022-07-23T09:47:27;3.38;;;0.50;;
52106;SDS011;38105;52.968;5.974;2022-07-23T09:50:07;1.67;;;0.38;;
52106;SDS011;38105;52.968;5.974;2022-07-23T09:52:42;1.52;;;0.43;;
52106;SDS011;38105;52.968;5.974;2022-07-23T09:55:15;1.55;;;0.40;;
52106;SDS011;38105;52.968;5.974;2022-07-23T09:57:42;2.10;;;0.75;;
52106;SDS011;38105;52.968;5.974;2022-07-23T10:00:10;1.63;;;0.50;;
52106;SDS011;38105;52.968;5.974;2022-07-23T10:02:36;2.05;;;0.35;;
52106;SDS011;38105;52.968;5.974;2022-07-23T10:05:02;1.65;;;0.50;;
52106;SDS011;38105;52.968;5.974;2022-07-23T10:07:31;1.85;;;0.40;;
52106;SDS011;38105;52.968;5.974;2022-07-23T10:09:59;4.00;;;1.02;;
52106;SDS011;38105;52.968;5.974;2022-07-23T10:12:26;1.85;;;0.43;;
52106;SDS011;38105;52.968;5.974;2022-07-23T10:15:09;2.92;;;0.50;;
52106;SDS011;38105;52.968;5.974;2022-07-23T10:17:36;1.67;;;0.40;;
52106;SDS011;38105;52.968;5.974;2022-07-23T10:20:02;1.60;;;0.50;;
52106;SDS011;38105;52.968;5.974;2022-07-23T10:22:30;1.63;;;0.50;;
52106;SDS011;38105;52.968;5.974;2022-07-23T10:28:02;3.45;;;0.50;;
52106;SDS011;38105;52.968;5.974;2022-07-23T10:36:55;2.28;;;0.57;;
52106;SDS011;38105;52.968;5.974;2022-07-23T10:39:29;0.90;;;0.40;;
52106;SDS011;38105;52.968;5.974;2022-07-23T10:42:10;2.10;;;0.75;;
52106;SDS011;38105;52.968;5.974;2022-07-23T10:44:38;2.60;;;0.50;;
52106;SDS011;38105;52.968;5.974;2022-07-23T10:47:09;3.63;;;0.57;;
52106;SDS011;38105;52.968;5.974;2022-07-23T10:49:47;2.00;;;0.47;;
52106;SDS011;38105;52.968;5.974;2022-07-23T10:54:49;1.60;;;0.50;;
52106;SDS011;38105;52.968;5.974;2022-07-23T10:57:16;2.10;;;0.50;;
52106;SDS011;38105;52.968;5.974;2022-07-23T11:02:35;1.80;;;0.50;;
52106;SDS011;38105;52.968;5.974;2022-07-23T11:05:03;2.47;;;0.60;;
52106;SDS011;38105;52.968;5.974;2022-07-23T11:07:30;2.25;;;0.85;;
52106;SDS011;38105;52.968;5.974;2022-07-23T11:09:56;1.60;;;0.70;;
52106;SDS011;38105;52.968;5.974;2022-07-23T11:17:57;3.53;;;0.60;;
52106;SDS011;38105;52.968;5.974;2022-07-23T11:20:27;2.42;;;0.80;;
52106;SDS011;38105;52.968;5.974;2022-07-23T11:22:57;1.65;;;0.55;;
52106;SDS011;38105;52.968;5.974;2022-07-23T11:27:50;1.85;;;1.02;;
52106;SDS011;38105;52.968;5.974;2022-07-23T11:32:51;2.78;;;0.60;;
52106;SDS011;38105;52.968;5.974;2022-07-23T11:35:33;3.15;;;0.75;;
52106;SDS011;38105;52.968;5.974;2022-07-23T11:38:07;3.70;;;0.85;;
52106;SDS011;38105;52.968;5.974;2022-07-23T11:40:37;4.18;;;0.82;;
52106;SDS011;38105;52.968;5.974;2022-07-23T11:43:04;2.70;;;0.70;;
52106;SDS011;38105;52.968;5.974;2022-07-23T11:45:36;2.83;;;0.68;;
52106;SDS011;38105;52.968;5.974;2022-07-23T11:48:06;2.53;;;0.70;;
52106;SDS011;38105;52.968;5.974;2022-07-23T11:50:41;1.95;;;0.90;;
52106;SDS011;38105;52.968;5.974;2022-07-23T11:53:06;3.78;;;0.68;;
52106;SDS011;38105;52.968;5.974;2022-07-23T11:55:32;1.88;;;0.70;;
52106;SDS011;38105;52.968;5.974;2022-07-23T11:57:58;2.38;;;0.88;;
52106;SDS011;38105;52.968;5.974;2022-07-23T12:00:24;3.45;;;0.70;;
52106;SDS011;38105;52.968;5.974;2022-07-23T12:02:52;5.55;;;1.35;;
52106;SDS011;38105;52.968;5.974;2022-07-23T12:05:25;3.40;;;1.10;;
52106;SDS011;38105;52.968;5.974;2022-07-23T12:07:56;3.67;;;0.90;;
52106;SDS011;38105;52.968;5.974;2022-07-23T12:10:24;1.48;;;0.80;;
52106;SDS011;38105;52.968;5.974;2022-07-23T12:12:54;1.63;;;0.85;;
52106;SDS011;38105;52.968;5.974;2022-07-23T12:15:20;1.27;;;0.80;;
52106;SDS011;38105;52.968;5.974;2022-07-23T12:17:57;2.20;;;0.70;;
52106;SDS011;38105;52.968;5.974;2022-07-23T12:20:27;2.47;;;0.80;;
52106;SDS011;38105;52.968;5.974;2022-07-23T12:22:56;3.58;;;1.10;;
52106;SDS011;38105;52.968;5.974;2022-07-23T12:25:31;3.08;;;1.10;;
52106;SDS011;38105;52.968;5.974;2022-07-23T12:28:11;2.30;;;0.90;;
52106;SDS011;38105;52.968;5.974;2022-07-23T12:30:43;1.80;;;0.82;;
52106;SDS011;38105;52.968;5.974;2022-07-23T12:33:12;1.60;;;0.80;;
52106;SDS011;38105;52.968;5.974;2022-07-23T12:35:52;1.10;;;0.57;;
52106;SDS011;38105;52.968;5.974;2022-07-23T12:38:20;1.35;;;0.68;;
52106;SDS011;38105;52.968;5.974;2022-07-23T12:40:57;1.20;;;0.68;;
52106;SDS011;38105;52.968;5.974;2022-07-23T12:43:28;3.10;;;0.80;;
52106;SDS011;38105;52.968;5.974;2022-07-23T12:46:03;2.35;;;1.02;;
52106;SDS011;38105;52.968;5.974;2022-07-23T12:48:30;1.40;;;0.77;;
52106;SDS011;38105;52.968;5.974;2022-07-23T12:51:26;4.38;;;1.00;;
52106;SDS011;38105;52.968;5.974;2022-07-23T12:54:09;3.40;;;0.82;;
52106;SDS011;38105;52.968;5.974;2022-07-23T12:56:38;2.72;;;0.90;;
52106;SDS011;38105;52.968;5.974;2022-07-23T13:02:00;2.70;;;1.00;;
52106;SDS011;38105;52.968;5.974;2022-07-23T13:04:24;3.28;;;1.17;;
52106;SDS011;38105;52.968;5.974;2022-07-23T13:06:52;2.22;;;0.70;;
52106;SDS011;38105;52.968;5.974;2022-07-23T13:09:29;3.83;;;1.02;;
52106;SDS011;38105;52.968;5.974;2022-07-23T13:11:56;2.40;;;0.88;;
52106;SDS011;38105;52.968;5.974;2022-07-23T13:14:22;2.22;;;0.85;;
52106;SDS011;38105;52.968;5.974;2022-07-23T13:16:49;2.85;;;0.80;;
52106;SDS011;38105;52.968;5.974;2022-07-23T13:19:16;1.80;;;0.90;;
52106;SDS011;38105;52.968;5.974;2022-07-23T13:21:42;3.10;;;1.13;;
52106;SDS011;38105;52.968;5.974;2022-07-23T13:24:09;3.60;;;1.10;;
52106;SDS011;38105;52.968;5.974;2022-07-23T13:26:36;2.53;;;0.90;;
52106;SDS011;38105;52.968;5.974;2022-07-23T13:29:02;2.30;;;0.70;;
52106;SDS011;38105;52.968;5.974;2022-07-23T13:31:28;3.65;;;1.00;;
52106;SDS011;38105;52.968;5.974;2022-07-23T13:33:53;4.30;;;0.90;;
52106;SDS011;38105;52.968;5.974;2022-07-23T13:36:19;2.03;;;1.00;;
52106;SDS011;38105;52.968;5.974;2022-07-23T13:38:45;2.78;;;0.85;;
52106;SDS011;38105;52.968;5.974;2022-07-23T13:41:10;2.10;;;1.00;;
52106;SDS011;38105;52.968;5.974;2022-07-23T13:43:36;2.75;;;1.15;;
52106;SDS011;38105;52.968;5.974;2022-07-23T13:46:02;1.80;;;1.08;;
52106;SDS011;38105;52.968;5.974;2022-07-23T13:48:27;1.70;;;0.90;;
52106;SDS011;38105;52.968;5.974;2022-07-23T13:50:54;2.15;;;0.98;;
52106;SDS011;38105;52.968;5.974;2022-07-23T13:53:20;4.07;;;0.70;;
52106;SDS011;38105;52.968;5.974;2022-07-23T13:55:48;4.78;;;1.10;;
52106;SDS011;38105;52.968;5.974;2022-07-23T13:58:15;3.33;;;0.80;;
52106;SDS011;38105;52.968;5.974;2022-07-23T14:00:43;2.55;;;0.85;;
52106;SDS011;38105;52.968;5.974;2022-07-23T14:03:11;2.55;;;0.88;;
52106;SDS011;38105;52.968;5.974;2022-07-23T14:05:37;2.38;;;1.10;;
52106;SDS011;38105;52.968;5.974;2022-07-23T14:08:02;3.15;;;0.90;;
52106;SDS011;38105;52.968;5.974;2022-07-23T14:10:29;3.70;;;1.10;;
52106;SDS011;38105;52.968;5.974;2022-07-23T14:12:55;6.13;;;1.40;;
52106;SDS011;38105;52.968;5.974;2022-07-23T14:15:23;2.55;;;0.98;;
52106;SDS011;38105;52.968;5.974;2022-07-23T14:17:51;2.33;;;0.88;;
52106;SDS011;38105;52.968;5.974;2022-07-23T14:20:18;3.30;;;1.00;;
52106;SDS011;38105;52.968;5.974;2022-07-23T14:22:44;3.60;;;1.00;;
52106;SDS011;38105;52.968;5.974;2022-07-23T14:25:10;2.40;;;1.40;;
52106;SDS011;38105;52.968;5.974;2022-07-23T14:27:36;2.55;;;1.20;;
52106;SDS011;38105;52.968;5.974;2022-07-23T14:30:03;2.42;;;1.00;;
52106;SDS011;38105;52.968;5.974;2022-07-23T14:32:30;4.57;;;1.23;;
52106;SDS011;38105;52.968;5.974;2022-07-23T14:34:56;3.33;;;1.00;;
52106;SDS011;38105;52.968;5.974;2022-07-23T14:37:22;2.80;;;0.90;;
52106;SDS011;38105;52.968;5.974;2022-07-23T14:39:47;4.50;;;1.10;;
52106;SDS011;38105;52.968;5.974;2022-07-23T14:42:13;3.55;;;0.95;;
52106;SDS011;38105;52.968;5.974;2022-07-23T14:44:38;2.92;;;0.90;;
52106;SDS011;38105;52.968;5.974;2022-07-23T14:47:05;3.80;;;1.00;;
52106;SDS011;38105;52.968;5.974;2022-07-23T14:49:31;4.47;;;1.20;;
52106;SDS011;38105;52.968;5.974;2022-07-23T14:51:57;2.28;;;1.00;;
52106;SDS011;38105;52.968;5.974;2022-07-23T14:54:23;3.85;;;1.10;;
52106;SDS011;38105;52.968;5.974;2022-07-23T14:56:51;3.03;;;0.80;;
52106;SDS011;38105;52.968;5.974;2022-07-23T14:59:17;1.95;;;0.80;;
52106;SDS011;38105;52.968;5.974;2022-07-23T15:01:43;2.47;;;0.90;;
52106;SDS011;38105;52.968;5.974;2022-07-23T15:04:08;2.53;;;0.70;;
52106;SDS011;38105;52.968;5.974;2022-07-23T15:06:34;3.63;;;0.90;;
52106;SDS011;38105;52.968;5.974;2022-07-23T15:09:00;2.97;;;0.90;;
52106;SDS011;38105;52.968;5.974;2022-07-23T15:11:26;3.47;;;0.90;;
52106;SDS011;38105;52.968;5.974;2022-07-23T15:13:54;5.90;;;1.45;;
52106;SDS011;38105;52.968;5.974;2022-07-23T15:16:20;5.13;;;1.17;;
52106;SDS011;38105;52.968;5.974;2022-07-23T15:18:45;10.93;;;2.38;;
52106;SDS011;38105;52.968;5.974;2022-07-23T15:21:11;4.22;;;1.25;;
52106;SDS011;38105;52.968;5.974;2022-07-23T15:23:37;5.32;;;1.10;;